Terminal Aerodrome Forecast
Issued by NWS

Home | Current Version | Previous Version | Text Only | Print | Product List | Glossary On
Versions: 1 2 3 4 5 6 7 8 9 10 11 12 13 14 15 16 17 18 19 20 21 22 23 24 25 26 27 28
259
FTUS44 KEWX 280754 AAA
TAFSSF
TAF AMD
KSSF 280754Z 2808/2906 VRB06KT P6SM OVC015
     FM281000 16010KT P6SM OVC008
     FM281500 16007KT P6SM OVC015
     FM281900 16010KT P6SM BKN040
     FM290300 13010KT P6SM OVC015=

USA.gov is the U.S. government's official web portal to all federal, state and local government web resources and services.